Time;durP1;ratioP1;P1;durP2;ratioP2;P2;SDS_P1;SDS_P2;PMS_P1;PMS_P2;Temp;Humidity;BMP_temperature;BMP_pressure;BME280_temperature;BME280_humidity;BME280_pressure;Samples;Min_cycle;Max_cycle;Signal;HPM_P1;HPM_P2
2024/01/07 00:01:35;;;;;;;14.88;6.32;;;-0.60;99.90;;;;;;5082009;28;20128;-57
2024/01/07 00:04:00;;;;;;;11.80;5.82;;;-0.70;99.90;;;;;;5063509;28;20046;-57
2024/01/07 00:06:26;;;;;;;13.57;6.18;;;-0.60;99.90;;;;;;5081682;28;20036;-57
2024/01/07 00:08:52;;;;;;;12.82;6.28;;;0.40;99.90;;;;;;5081371;28;20045;-58
2024/01/07 00:11:17;;;;;;;13.10;5.22;;;0.50;99.90;;;;;;5063179;28;20032;-57
2024/01/07 00:13:43;;;;;;;12.05;4.28;;;-0.70;99.90;;;;;;5081140;28;20071;-58
2024/01/07 00:16:09;;;;;;;11.27;4.45;;;-0.70;99.90;;;;;;5080100;28;20041;-57
2024/01/07 00:18:34;;;;;;;9.93;4.97;;;-0.40;99.90;;;;;;5081478;28;20040;-57
2024/01/07 00:21:00;;;;;;;9.15;4.53;;;0.10;99.90;;;;;;5081561;28;20041;-57
2024/01/07 00:23:26;;;;;;;9.40;3.90;;;0.10;99.90;;;;;;5081219;28;20055;-58
2024/01/07 00:25:51;;;;;;;10.15;4.63;;;-0.40;99.90;;;;;;5081276;28;20074;-57
2024/01/07 00:28:17;;;;;;;12.15;4.90;;;0.40;99.90;;;;;;5080891;28;20416;-57
2024/01/07 00:30:43;;;;;;;9.80;4.95;;;-0.60;99.90;;;;;;5081057;28;20045;-58
2024/01/07 00:33:08;;;;;;;9.30;4.50;;;0.30;99.90;;;;;;5080843;28;20057;-57
2024/01/07 00:35:34;;;;;;;9.95;4.65;;;-0.70;99.90;;;;;;5080813;28;20059;-57
2024/01/07 00:38:00;;;;;;;12.10;4.90;;;0.10;99.90;;;;;;5080883;28;20423;-57
2024/01/07 00:40:26;;;;;;;11.73;4.68;;;-0.60;99.90;;;;;;5081101;28;20047;-58
2024/01/07 00:42:52;;;;;;;9.90;4.78;;;-0.70;99.90;;;;;;5063085;28;20052;-57
2024/01/07 00:45:18;;;;;;;10.02;4.88;;;-0.40;99.90;;;;;;5079297;28;20050;-57
2024/01/07 00:47:44;;;;;;;9.52;4.18;;;-0.60;99.90;;;;;;5080642;28;20096;-57
2024/01/07 00:50:10;;;;;;;11.00;5.20;;;0.40;99.90;;;;;;5080796;28;20032;-57
2024/01/07 00:52:37;;;;;;;10.07;4.43;;;0.40;99.90;;;;;;5080507;28;20098;-58
2024/01/07 00:55:04;;;;;;;11.10;5.05;;;0.50;99.90;;;;;;5062216;28;20377;-57
2024/01/07 00:57:30;;;;;;;10.90;5.47;;;-0.70;99.90;;;;;;5080530;28;20044;-57
2024/01/07 00:59:55;;;;;;;12.02;5.35;;;0.40;99.90;;;;;;5080470;28;20059;-57
2024/01/07 01:02:21;;;;;;;10.75;4.78;;;0.40;99.90;;;;;;5080655;28;20056;-58
2024/01/07 01:04:47;;;;;;;10.30;4.82;;;0.50;99.90;;;;;;5079983;28;20040;-58
2024/01/07 01:07:14;;;;;;;13.98;5.53;;;0.10;99.90;;;;;;5061956;28;20037;-57
2024/01/07 01:09:39;;;;;;;9.38;4.57;;;-0.40;99.90;;;;;;5080254;28;20048;-57
2024/01/07 01:12:05;;;;;;;10.30;4.75;;;-0.60;99.90;;;;;;5080552;28;20074;-57
2024/01/07 01:14:31;;;;;;;11.57;5.25;;;0.40;99.90;;;;;;5080640;28;20197;-57
2024/01/07 01:16:57;;;;;;;9.93;4.70;;;-0.60;99.90;;;;;;5080340;28;20055;-57
2024/01/07 01:19:23;;;;;;;10.93;5.50;;;-0.10;99.90;;;;;;5080170;28;20037;-57
2024/01/07 01:21:49;;;;;;;9.52;4.65;;;0.50;99.90;;;;;;5080029;28;20549;-57
2024/01/07 01:24:14;;;;;;;12.27;4.68;;;-0.50;99.90;;;;;;5079844;28;20044;-58
2024/01/07 01:26:40;;;;;;;8.20;4.30;;;0.40;99.90;;;;;;5080048;28;20061;-57
2024/01/07 01:29:06;;;;;;;9.73;4.10;;;-0.10;99.90;;;;;;5080055;28;20120;-57
2024/01/07 01:31:31;;;;;;;11.95;3.97;;;0.40;99.90;;;;;;5079940;28;20094;-57
2024/01/07 01:33:57;;;;;;;11.40;3.95;;;0.30;99.90;;;;;;5079839;28;20051;-57
2024/01/07 01:36:23;;;;;;;11.07;4.50;;;-0.50;99.90;;;;;;5079842;28;20127;-57
2024/01/07 01:38:49;;;;;;;10.60;4.68;;;0.30;99.90;;;;;;5079626;28;20385;-56
2024/01/07 01:41:16;;;;;;;8.95;3.83;;;0.30;99.90;;;;;;5079684;28;20094;-57
2024/01/07 01:43:42;;;;;;;8.63;3.67;;;-0.40;99.90;;;;;;5079605;28;20437;-57
2024/01/07 01:46:07;;;;;;;8.75;3.95;;;-0.40;99.90;;;;;;5079671;28;20063;-56
2024/01/07 01:48:35;;;;;;;9.20;3.67;;;0.20;99.90;;;;;;5079873;28;20072;-57
2024/01/07 01:51:01;;;;;;;8.73;4.32;;;-0.40;99.90;;;;;;5079500;28;20579;-56
2024/01/07 01:53:27;;;;;;;9.57;5.00;;;0.30;99.90;;;;;;5079830;28;20036;-57
2024/01/07 01:55:55;;;;;;;9.80;4.00;;;-1.00;99.90;;;;;;5079397;28;20065;-57
2024/01/07 01:58:21;;;;;;;9.45;3.97;;;-0.50;99.90;;;;;;5079322;28;20044;-57
2024/01/07 02:00:47;;;;;;;9.07;4.00;;;-0.40;99.90;;;;;;5078932;28;20098;-57
2024/01/07 02:03:13;;;;;;;9.27;3.60;;;-0.50;99.90;;;;;;5079490;28;20052;-58
2024/01/07 02:05:38;;;;;;;8.95;3.80;;;0.20;99.90;;;;;;5078464;28;20041;-58
2024/01/07 02:08:05;;;;;;;10.50;4.03;;;-0.50;99.90;;;;;;5079042;28;20118;-56
2024/01/07 02:10:34;;;;;;;10.10;4.85;;;0.20;99.90;;;;;;5079407;28;20048;-57
2024/01/07 02:13:00;;;;;;;8.52;3.67;;;0.30;99.90;;;;;;5079257;28;20060;-57
2024/01/07 02:15:26;;;;;;;12.32;3.47;;;0.20;99.90;;;;;;5078972;28;20319;-57
2024/01/07 02:17:52;;;;;;;9.07;3.45;;;-0.20;99.90;;;;;;5078907;28;20098;-57
2024/01/07 02:20:17;;;;;;;8.85;3.63;;;0.30;99.90;;;;;;5079024;28;20101;-57
2024/01/07 02:22:43;;;;;;;8.18;3.47;;;-0.50;99.90;;;;;;5061051;28;20539;-57
2024/01/07 02:25:09;;;;;;;10.77;3.63;;;-0.20;99.90;;;;;;5079308;28;20048;-57
2024/01/07 02:27:34;;;;;;;10.65;3.63;;;0.20;99.90;;;;;;5079020;28;20044;-57
2024/01/07 02:30:00;;;;;;;6.90;2.90;;;-0.20;99.90;;;;;;5079085;28;20054;-57
2024/01/07 02:32:26;;;;;;;9.90;3.60;;;0.30;99.90;;;;;;5060746;28;20055;-57
2024/01/07 02:34:52;;;;;;;9.60;3.30;;;-0.20;99.90;;;;;;5078248;28;20131;-57
2024/01/07 02:37:18;;;;;;;7.97;3.63;;;0.20;99.90;;;;;;5078759;28;20083;-57
2024/01/07 02:39:44;;;;;;;6.55;2.80;;;-0.40;99.90;;;;;;5060629;28;20047;-57
2024/01/07 02:42:10;;;;;;;10.05;3.33;;;-0.40;99.90;;;;;;5079048;28;20106;-57
2024/01/07 02:44:36;;;;;;;8.15;3.30;;;0.20;99.90;;;;;;5078995;28;20053;-57
2024/01/07 02:47:02;;;;;;;6.93;2.78;;;-0.20;99.90;;;;;;5078667;28;20532;-57
2024/01/07 02:49:28;;;;;;;8.48;3.70;;;0.30;99.90;;;;;;5078228;28;20079;-56
2024/01/07 02:51:54;;;;;;;7.47;2.75;;;0.20;99.90;;;;;;5078436;28;20148;-57
2024/01/07 02:54:19;;;;;;;5.75;2.47;;;-0.50;99.90;;;;;;5078383;28;20037;-57
2024/01/07 02:56:45;;;;;;;8.40;3.07;;;0.20;99.90;;;;;;5078357;28;20047;-57
2024/01/07 02:59:11;;;;;;;8.75;3.00;;;-0.50;99.90;;;;;;5078558;28;20058;-57
2024/01/07 03:01:40;;;;;;;7.07;2.88;;;-0.10;99.90;;;;;;5078488;28;20056;-57
2024/01/07 03:04:12;;;;;;;6.65;2.65;;;0.20;99.90;;;;;;5078497;28;20049;-58
2024/01/07 03:06:37;;;;;;;7.22;2.90;;;-0.20;99.90;;;;;;5078498;28;20603;-57
2024/01/07 03:09:03;;;;;;;7.60;2.92;;;-0.40;99.90;;;;;;5078667;28;20040;-57
2024/01/07 03:11:29;;;;;;;5.78;2.53;;;-0.30;99.90;;;;;;5078459;28;20032;-57
2024/01/07 03:13:56;;;;;;;6.63;2.95;;;0.20;99.90;;;;;;5078245;28;20508;-57
2024/01/07 03:16:22;;;;;;;6.50;2.70;;;0.20;99.90;;;;;;5060413;28;20873;-57
2024/01/07 03:18:48;;;;;;;6.88;2.88;;;0.20;99.90;;;;;;5081309;28;20047;-57
2024/01/07 03:21:22;;;;;;;6.22;2.53;;;-0.10;99.90;;;;;;5082289;28;20100;-57
2024/01/07 03:23:48;;;;;;;7.70;2.85;;;0.10;99.90;;;;;;5064434;28;20056;-56
2024/01/07 03:26:14;;;;;;;8.45;2.92;;;-0.50;99.90;;;;;;5082097;28;20055;-60
2024/01/07 03:28:40;;;;;;;8.50;2.65;;;-0.50;99.90;;;;;;5082380;28;20047;-59
2024/01/07 03:31:10;;;;;;;7.20;2.67;;;0.10;99.90;;;;;;5081958;28;20052;-59
2024/01/07 03:33:40;;;;;;;7.22;2.80;;;-0.20;99.90;;;;;;5082449;28;20120;-59
2024/01/07 03:36:09;;;;;;;6.88;2.33;;;-0.50;99.90;;;;;;5082231;28;20044;-60
2024/01/07 03:38:36;;;;;;;7.88;2.60;;;0.20;99.90;;;;;;5082093;28;20048;-60
2024/01/07 03:41:02;;;;;;;7.03;2.22;;;0.10;99.90;;;;;;5081992;28;20040;-59
2024/01/07 03:43:28;;;;;;;7.68;3.00;;;-0.40;99.90;;;;;;5081705;28;20555;-60
2024/01/07 03:45:54;;;;;;;6.85;2.28;;;-0.50;99.90;;;;;;5081957;28;20040;-59
2024/01/07 03:48:19;;;;;;;5.00;2.08;;;-0.10;99.90;;;;;;5082025;28;20051;-60
2024/01/07 03:50:45;;;;;;;7.07;2.70;;;-0.60;99.90;;;;;;5081924;28;20040;-58
2024/01/07 03:53:11;;;;;;;7.45;2.72;;;0.20;99.90;;;;;;5082141;28;20070;-59
2024/01/07 03:55:37;;;;;;;5.18;1.90;;;0.00;99.90;;;;;;5082025;28;20440;-59
2024/01/07 03:58:04;;;;;;;6.13;2.10;;;-0.10;99.90;;;;;;5063362;28;20123;-59
2024/01/07 04:00:29;;;;;;;6.88;2.38;;;-0.50;99.90;;;;;;5081102;28;20047;-59
2024/01/07 04:02:55;;;;;;;6.85;2.40;;;-0.50;99.90;;;;;;5081535;28;20076;-60
2024/01/07 04:05:21;;;;;;;5.85;1.92;;;0.20;99.90;;;;;;5081341;28;20049;-60
2024/01/07 04:07:46;;;;;;;5.80;2.20;;;-0.40;99.90;;;;;;5081887;28;20098;-60
2024/01/07 04:10:12;;;;;;;6.43;2.53;;;-0.20;99.90;;;;;;5081744;28;20037;-57
2024/01/07 04:12:38;;;;;;;6.78;2.08;;;0.10;99.90;;;;;;5081598;28;20045;-57
2024/01/07 04:15:04;;;;;;;5.50;1.88;;;0.00;99.90;;;;;;5081506;28;20047;-56
2024/01/07 04:17:30;;;;;;;9.35;2.10;;;-0.20;99.90;;;;;;5081277;28;20049;-59
2024/01/07 04:19:56;;;;;;;5.97;2.20;;;-0.50;99.90;;;;;;5081307;28;20071;-59
2024/01/07 04:22:21;;;;;;;9.63;2.67;;;-0.50;99.90;;;;;;5081353;28;20127;-59
2024/01/07 04:24:47;;;;;;;4.78;1.90;;;0.20;99.90;;;;;;5081562;28;20040;-59
2024/01/07 04:27:13;;;;;;;4.30;1.80;;;0.20;99.90;;;;;;5081264;28;20059;-59
2024/01/07 04:29:38;;;;;;;6.70;2.10;;;0.20;99.90;;;;;;5062222;28;20044;-59
2024/01/07 04:32:04;;;;;;;6.65;2.08;;;0.00;99.90;;;;;;5079805;28;20044;-59
2024/01/07 04:34:30;;;;;;;8.13;1.98;;;0.10;99.90;;;;;;5080674;28;20073;-59
2024/01/07 04:36:55;;;;;;;6.28;2.00;;;-0.20;99.90;;;;;;5081032;28;20044;-58
2024/01/07 04:39:21;;;;;;;5.10;1.90;;;-0.20;99.90;;;;;;5080848;28;20067;-59
2024/01/07 04:41:47;;;;;;;4.68;1.65;;;0.10;99.90;;;;;;5080640;28;20104;-59
2024/01/07 04:44:12;;;;;;;5.18;2.05;;;-0.60;99.90;;;;;;5080839;28;20049;-58
2024/01/07 04:46:39;;;;;;;5.60;2.33;;;-0.60;99.90;;;;;;5081328;28;20104;-59
2024/01/07 04:49:05;;;;;;;5.45;1.73;;;-0.50;99.90;;;;;;5081023;28;20048;-59
2024/01/07 04:51:32;;;;;;;3.95;1.50;;;-0.20;99.90;;;;;;5079389;28;20525;-59
2024/01/07 04:53:57;;;;;;;4.97;1.55;;;0.00;99.90;;;;;;5080947;28;20170;-59
2024/01/07 04:56:23;;;;;;;6.05;1.60;;;0.00;99.90;;;;;;5080227;28;20049;-59
2024/01/07 04:58:49;;;;;;;5.13;1.67;;;0.00;99.90;;;;;;5062112;28;20057;-59
2024/01/07 05:01:14;;;;;;;4.13;1.60;;;0.20;99.90;;;;;;5080716;28;20088;-59
2024/01/07 05:03:40;;;;;;;4.28;1.42;;;-0.50;99.90;;;;;;5079349;28;20567;-59
2024/01/07 05:06:09;;;;;;;6.82;1.70;;;0.10;99.90;;;;;;5080531;28;20041;-59
2024/01/07 05:08:37;;;;;;;5.10;1.75;;;0.10;99.90;;;;;;5080508;28;20040;-59
2024/01/07 05:11:03;;;;;;;5.25;2.00;;;-0.10;99.90;;;;;;5079932;28;20049;-59
2024/01/07 05:13:29;;;;;;;6.30;2.25;;;-0.30;99.90;;;;;;5080161;28;20044;-59
2024/01/07 05:15:54;;;;;;;3.33;1.52;;;-0.50;99.90;;;;;;5080161;28;20047;-59
2024/01/07 05:18:24;;;;;;;5.43;1.60;;;-0.30;99.90;;;;;;5080121;28;20470;-59
2024/01/07 05:20:52;;;;;;;4.78;1.58;;;0.00;99.90;;;;;;5080411;28;20051;-59
2024/01/07 05:23:18;;;;;;;4.00;1.50;;;-0.40;99.90;;;;;;5080333;28;20067;-59
2024/01/07 05:25:44;;;;;;;6.47;1.92;;;0.10;99.90;;;;;;5061910;28;20048;-57
2024/01/07 05:28:11;;;;;;;2.97;1.10;;;-0.40;99.90;;;;;;5062082;28;20130;-59
2024/01/07 05:30:36;;;;;;;5.30;1.70;;;-0.30;99.90;;;;;;5079779;28;20036;-59
2024/01/07 05:33:02;;;;;;;5.45;1.80;;;-0.40;99.90;;;;;;5079991;28;20048;-59
2024/01/07 05:35:28;;;;;;;5.70;1.67;;;0.10;99.90;;;;;;5079892;28;20040;-59
2024/01/07 05:37:53;;;;;;;6.30;1.50;;;-0.20;99.90;;;;;;5080118;28;20496;-59
2024/01/07 05:40:19;;;;;;;5.07;2.25;;;-0.40;99.90;;;;;;5079597;28;20040;-59
2024/01/07 05:42:45;;;;;;;4.00;1.65;;;-0.40;99.90;;;;;;5079862;28;20040;-59
2024/01/07 05:45:10;;;;;;;4.15;1.55;;;0.10;99.90;;;;;;5079846;28;20045;-59
2024/01/07 05:47:36;;;;;;;4.20;1.50;;;-0.40;99.90;;;;;;5061709;28;20040;-59
2024/01/07 05:50:02;;;;;;;6.68;1.40;;;-0.20;99.90;;;;;;5079566;28;20044;-59
2024/01/07 05:52:28;;;;;;;4.03;1.20;;;0.00;99.90;;;;;;5079187;28;20543;-59
2024/01/07 05:54:53;;;;;;;5.45;1.30;;;-0.30;99.90;;;;;;5079633;28;20123;-59
2024/01/07 05:57:19;;;;;;;4.85;1.42;;;0.00;99.90;;;;;;5078190;28;20044;-61
2024/01/07 05:59:45;;;;;;;5.93;1.30;;;0.00;99.90;;;;;;5079281;28;20044;-60
2024/01/07 06:02:12;;;;;;;5.05;1.42;;;-0.40;99.90;;;;;;5079400;28;20048;-59
2024/01/07 06:04:38;;;;;;;4.00;1.55;;;0.00;99.90;;;;;;5078772;28;20032;-59
2024/01/07 06:07:04;;;;;;;6.15;1.70;;;-0.40;99.90;;;;;;5078852;28;20040;-59
2024/01/07 06:09:30;;;;;;;3.90;1.40;;;-0.30;99.90;;;;;;5079040;28;20044;-61
2024/01/07 06:11:55;;;;;;;4.38;1.40;;;-0.30;99.90;;;;;;5079523;28;20088;-59
2024/01/07 06:14:22;;;;;;;5.65;1.30;;;0.10;99.90;;;;;;5079327;28;20109;-59
2024/01/07 06:16:48;;;;;;;5.68;1.55;;;0.00;99.90;;;;;;5079274;28;20079;-59
2024/01/07 06:19:14;;;;;;;4.35;1.42;;;-0.10;99.90;;;;;;5078972;28;20072;-60
2024/01/07 06:21:40;;;;;;;4.20;1.30;;;0.00;99.90;;;;;;5078939;28;20044;-59
2024/01/07 06:24:08;;;;;;;5.50;1.33;;;-0.40;99.90;;;;;;5078843;28;20094;-59
2024/01/07 06:26:34;;;;;;;4.15;1.25;;;-0.40;99.90;;;;;;5078607;28;20096;-59
2024/01/07 06:28:59;;;;;;;4.05;1.25;;;-0.30;99.90;;;;;;5078940;28;20177;-60
2024/01/07 06:31:26;;;;;;;5.78;1.33;;;-0.10;99.90;;;;;;5079005;28;20036;-59
2024/01/07 06:33:51;;;;;;;4.15;1.20;;;-0.40;99.90;;;;;;5078755;28;20048;-59
2024/01/07 06:36:17;;;;;;;6.10;1.60;;;0.00;99.90;;;;;;5078617;28;20101;-60
2024/01/07 06:38:43;;;;;;;5.10;1.42;;;-0.20;99.90;;;;;;5078709;28;20072;-59
2024/01/07 06:41:12;;;;;;;4.43;1.60;;;-0.10;99.90;;;;;;5060318;28;20119;-59
2024/01/07 06:43:38;;;;;;;4.43;1.40;;;-0.30;99.90;;;;;;5078693;28;20502;-59
2024/01/07 06:46:04;;;;;;;3.53;1.17;;;-0.40;99.90;;;;;;5078837;28;20048;-60
2024/01/07 06:48:30;;;;;;;3.65;1.20;;;0.00;99.90;;;;;;5078919;28;20029;-60
2024/01/07 06:50:57;;;;;;;4.97;1.40;;;-0.40;99.90;;;;;;5043991;28;20040;-59
2024/01/07 06:53:22;;;;;;;4.88;1.40;;;0.00;99.90;;;;;;5078096;28;20040;-59
2024/01/07 06:55:48;;;;;;;4.05;1.50;;;0.00;99.90;;;;;;5078386;28;20667;-59
2024/01/07 06:58:13;;;;;;;4.78;1.35;;;-0.40;99.90;;;;;;5078319;28;20044;-59
2024/01/07 07:00:39;;;;;;;4.38;1.52;;;-0.20;99.90;;;;;;5078233;28;20097;-59
2024/01/07 07:03:05;;;;;;;3.95;1.45;;;-0.50;99.90;;;;;;5078583;28;20067;-59
2024/01/07 07:05:31;;;;;;;6.45;1.50;;;-0.20;99.90;;;;;;5060180;28;20121;-59
2024/01/07 07:07:57;;;;;;;5.55;1.25;;;-0.50;99.90;;;;;;5078672;28;20048;-59
2024/01/07 07:10:23;;;;;;;4.40;1.40;;;-0.50;99.90;;;;;;5078599;28;20036;-59
2024/01/07 07:12:50;;;;;;;3.83;1.35;;;-0.60;99.90;;;;;;5078624;28;20045;-59
2024/01/07 07:15:16;;;;;;;3.72;1.27;;;-0.60;99.90;;;;;;5078313;28;20052;-59
2024/01/07 07:17:42;;;;;;;6.25;1.95;;;-0.20;99.90;;;;;;5078347;28;20081;-59
2024/01/07 07:20:08;;;;;;;7.68;1.48;;;-0.60;99.90;;;;;;5078095;28;20044;-59
2024/01/07 07:22:34;;;;;;;3.85;1.40;;;-0.40;99.90;;;;;;5060676;28;20055;-59
2024/01/07 07:25:00;;;;;;;4.35;1.50;;;-0.80;99.90;;;;;;5078431;28;20036;-59
2024/01/07 07:27:26;;;;;;;5.97;1.70;;;-0.60;99.90;;;;;;5059894;28;20041;-59
2024/01/07 07:29:51;;;;;;;6.38;1.50;;;-0.80;99.90;;;;;;5060308;28;20055;-58
2024/01/07 07:32:17;;;;;;;3.95;1.50;;;-0.40;99.90;;;;;;5078279;28;20048;-58
2024/01/07 07:34:43;;;;;;;4.55;1.50;;;-0.40;99.90;;;;;;5077550;28;20045;-59
2024/01/07 07:37:09;;;;;;;4.70;1.40;;;-0.40;99.90;;;;;;5078102;28;20056;-59
2024/01/07 07:39:35;;;;;;;3.42;1.42;;;-0.40;99.90;;;;;;5078390;28;20108;-59
2024/01/07 07:42:01;;;;;;;4.45;1.42;;;-0.50;99.90;;;;;;5078440;28;20049;-58
2024/01/07 07:44:27;;;;;;;4.32;1.60;;;-0.40;99.90;;;;;;5078420;28;20037;-59
2024/01/07 07:46:52;;;;;;;6.03;2.28;;;-0.80;99.90;;;;;;5078236;28;20044;-59
2024/01/07 07:49:18;;;;;;;5.38;1.60;;;-0.80;99.90;;;;;;5077931;28;20049;-59
2024/01/07 07:51:44;;;;;;;5.15;1.77;;;-0.80;99.90;;;;;;5078143;28;20072;-59
2024/01/07 07:54:10;;;;;;;4.60;1.42;;;-0.50;99.90;;;;;;5078045;28;20067;-59
2024/01/07 07:56:35;;;;;;;5.45;1.60;;;-0.80;99.90;;;;;;5077999;28;20032;-59
2024/01/07 07:59:02;;;;;;;7.45;2.10;;;-0.50;99.90;;;;;;5077981;28;20095;-58
2024/01/07 08:01:28;;;;;;;6.18;1.38;;;-0.30;99.90;;;;;;5076933;28;20074;-59
2024/01/07 08:03:54;;;;;;;5.55;1.70;;;-0.70;99.90;;;;;;5078834;28;20182;-59
2024/01/07 08:06:20;;;;;;;6.50;1.60;;;-0.30;99.90;;;;;;5081574;28;20063;-59
2024/01/07 08:08:46;;;;;;;6.10;1.58;;;-0.30;99.90;;;;;;5081594;28;20098;-59
2024/01/07 08:11:11;;;;;;;5.95;1.65;;;-0.30;99.90;;;;;;5081361;28;20060;-59
2024/01/07 08:13:38;;;;;;;5.28;1.70;;;-0.60;99.90;;;;;;5081381;28;20062;-59
2024/01/07 08:16:05;;;;;;;6.10;1.80;;;-0.30;99.90;;;;;;5081241;28;20040;-57
2024/01/07 08:18:31;;;;;;;6.50;1.90;;;-0.60;99.90;;;;;;5081140;28;20719;-59
2024/01/07 08:20:57;;;;;;;6.82;1.92;;;-0.50;99.90;;;;;;5081701;28;20089;-59
2024/01/07 08:23:24;;;;;;;4.90;2.00;;;-0.30;99.90;;;;;;5081560;28;20429;-58
2024/01/07 08:25:51;;;;;;;3.95;1.60;;;-0.40;99.90;;;;;;5081178;28;20526;-59
2024/01/07 08:28:17;;;;;;;4.50;1.80;;;-0.20;99.90;;;;;;5081079;28;20087;-59
2024/01/07 08:30:44;;;;;;;6.45;1.80;;;-0.40;99.90;;;;;;5081022;28;20063;-59
2024/01/07 08:33:10;;;;;;;4.47;1.67;;;-0.10;99.90;;;;;;5080900;28;20052;-59
2024/01/07 08:35:36;;;;;;;3.88;1.58;;;-0.40;99.90;;;;;;5081189;28;20040;-58
2024/01/07 08:38:02;;;;;;;5.15;2.00;;;-0.20;99.90;;;;;;5081366;28;20045;-58
2024/01/07 08:40:29;;;;;;;5.93;1.67;;;-0.40;99.90;;;;;;5081248;28;20044;-59
2024/01/07 08:42:55;;;;;;;3.97;1.60;;;-0.40;99.90;;;;;;5081046;28;20048;-59
2024/01/07 08:45:21;;;;;;;4.72;1.70;;;-0.10;99.90;;;;;;5062625;28;20063;-59
2024/01/07 08:47:47;;;;;;;5.35;2.00;;;-0.30;99.90;;;;;;5080609;28;20048;-59
2024/01/07 08:50:13;;;;;;;3.67;1.50;;;-0.30;99.90;;;;;;5080995;28;20070;-59
2024/01/07 08:52:38;;;;;;;4.45;1.67;;;0.00;99.90;;;;;;5080820;28;20075;-58
2024/01/07 08:55:06;;;;;;;3.70;1.30;;;-0.10;99.90;;;;;;5080655;28;20428;-58
2024/01/07 08:57:32;;;;;;;4.43;1.60;;;-0.10;99.90;;;;;;5080852;28;20048;-59
2024/01/07 08:59:58;;;;;;;4.65;1.65;;;0.00;99.90;;;;;;5080268;28;20098;-59
2024/01/07 09:02:25;;;;;;;3.50;1.60;;;-0.30;99.90;;;;;;5080666;28;20100;-58
2024/01/07 09:04:51;;;;;;;4.57;1.75;;;-0.30;99.90;;;;;;5080421;28;20036;-59
2024/01/07 09:07:16;;;;;;;5.28;1.90;;;0.00;99.90;;;;;;5080355;28;20051;-58
2024/01/07 09:09:42;;;;;;;5.63;1.90;;;0.00;99.90;;;;;;5062646;28;20040;-59
2024/01/07 09:12:08;;;;;;;6.45;1.80;;;-0.10;99.90;;;;;;5080438;28;20079;-59
2024/01/07 09:14:34;;;;;;;3.97;1.50;;;-0.20;99.90;;;;;;5080305;28;20102;-59
2024/01/07 09:16:59;;;;;;;5.80;2.00;;;0.10;99.90;;;;;;5079840;28;20051;-59
2024/01/07 09:19:25;;;;;;;6.22;2.10;;;0.20;99.90;;;;;;5080013;28;20052;-59
2024/01/07 09:21:50;;;;;;;4.75;1.83;;;0.20;99.90;;;;;;5080119;28;20036;-59
2024/01/07 09:24:16;;;;;;;4.57;1.80;;;0.20;99.90;;;;;;5080058;28;20048;-58
2024/01/07 09:26:42;;;;;;;6.20;2.00;;;0.30;99.90;;;;;;5080060;28;20432;-59
2024/01/07 09:29:08;;;;;;;8.13;1.92;;;0.30;99.90;;;;;;5080197;28;20032;-59
2024/01/07 09:31:33;;;;;;;4.85;1.80;;;0.20;99.90;;;;;;5079959;28;20159;-59
2024/01/07 09:33:59;;;;;;;6.78;2.28;;;0.20;99.90;;;;;;5080088;28;20101;-59
2024/01/07 09:36:25;;;;;;;5.90;1.80;;;0.30;99.90;;;;;;5078590;28;20040;-57
2024/01/07 09:38:51;;;;;;;6.35;1.83;;;0.20;99.90;;;;;;5079877;28;20045;-59
2024/01/07 09:41:17;;;;;;;4.63;1.80;;;0.10;99.90;;;;;;5078485;28;20062;-59
2024/01/07 09:43:42;;;;;;;4.72;1.75;;;0.10;99.90;;;;;;5079762;28;20049;-59
2024/01/07 09:46:08;;;;;;;5.53;1.73;;;0.30;99.90;;;;;;5079813;28;20126;-58
2024/01/07 09:48:34;;;;;;;5.82;1.50;;;0.20;99.90;;;;;;5079887;28;20048;-59
2024/01/07 09:51:01;;;;;;;6.22;2.10;;;0.30;99.90;;;;;;5080025;28;20039;-59
2024/01/07 09:53:31;;;;;;;4.47;1.48;;;0.20;99.90;;;;;;5079883;28;20086;-59
2024/01/07 09:56:18;;;;;;;8.27;2.10;;;0.30;99.90;;;;;;5079522;28;20279;-59
2024/01/07 09:58:45;;;;;;;6.78;1.70;;;0.50;99.90;;;;;;5078904;28;20055;-59
2024/01/07 10:01:11;;;;;;;5.07;1.80;;;0.30;99.90;;;;;;5079162;28;20115;-58
2024/01/07 10:03:37;;;;;;;6.53;2.20;;;0.30;99.90;;;;;;5079051;28;20737;-59
2024/01/07 10:06:03;;;;;;;5.57;1.70;;;0.40;99.90;;;;;;5078902;28;20064;-59
2024/01/07 10:08:29;;;;;;;6.22;2.00;;;0.40;99.90;;;;;;5078786;28;20044;-59
2024/01/07 10:10:54;;;;;;;5.00;1.95;;;0.50;99.90;;;;;;5078733;28;20043;-59
2024/01/07 10:13:22;;;;;;;5.20;2.13;;;0.60;99.90;;;;;;5078865;28;20036;-59
2024/01/07 10:15:48;;;;;;;7.05;2.03;;;0.60;99.90;;;;;;5078906;28;20655;-59
2024/01/07 10:18:14;;;;;;;6.00;2.13;;;0.40;99.90;;;;;;5078992;28;20044;-59
2024/01/07 10:20:39;;;;;;;6.00;2.10;;;0.50;99.90;;;;;;5079424;28;20062;-59
2024/01/07 10:23:07;;;;;;;4.82;1.90;;;0.50;99.90;;;;;;5079121;28;20041;-58
2024/01/07 10:25:34;;;;;;;5.88;1.98;;;0.80;99.90;;;;;;5079048;28;20472;-58
2024/01/07 10:28:03;;;;;;;4.50;1.77;;;0.80;99.90;;;;;;5077841;28;20048;-59
2024/01/07 10:30:29;;;;;;;6.70;1.85;;;0.70;99.90;;;;;;5078864;28;20508;-59
2024/01/07 10:32:59;;;;;;;6.00;2.00;;;0.70;99.90;;;;;;5078698;28;20059;-58
2024/01/07 10:35:33;;;;;;;4.90;1.80;;;0.70;99.90;;;;;;5078915;28;20048;-59
2024/01/07 10:38:03;;;;;;;4.85;2.03;;;0.90;99.90;;;;;;5078793;28;20389;-59
2024/01/07 10:40:31;;;;;;;6.00;2.25;;;0.90;99.90;;;;;;5078846;28;20088;-59
2024/01/07 10:42:57;;;;;;;8.23;2.10;;;0.70;99.90;;;;;;5078865;28;20040;-59
2024/01/07 10:45:23;;;;;;;5.85;2.15;;;0.90;99.90;;;;;;5060669;28;20051;-59
2024/01/07 10:47:51;;;;;;;5.75;1.98;;;1.00;99.90;;;;;;5078507;28;20036;-58
2024/01/07 10:50:18;;;;;;;5.53;1.88;;;1.10;99.90;;;;;;5078515;28;20520;-58
2024/01/07 10:52:55;;;;;;;6.65;2.38;;;0.70;99.90;;;;;;5078467;28;20045;-58
2024/01/07 10:55:25;;;;;;;6.05;2.42;;;0.70;99.90;;;;;;5078836;28;20044;-58
2024/01/07 10:57:53;;;;;;;5.32;2.28;;;1.00;99.90;;;;;;5078664;28;20056;-59
2024/01/07 11:00:19;;;;;;;6.57;2.25;;;1.00;99.90;;;;;;5078233;28;20061;-59
2024/01/07 11:03:00;;;;;;;6.68;2.03;;;1.00;99.90;;;;;;5078708;28;20068;-59
2024/01/07 11:05:39;;;;;;;5.20;1.98;;;0.90;99.90;;;;;;5078428;28;20045;-59
2024/01/07 11:08:16;;;;;;;5.40;2.13;;;0.80;99.90;;;;;;5078750;28;20081;-59
2024/01/07 11:10:48;;;;;;;7.50;2.35;;;1.00;99.90;;;;;;5078178;28;20056;-59
2024/01/07 11:13:34;;;;;;;5.78;2.17;;;0.70;99.90;;;;;;5078192;28;20045;-59
2024/01/07 11:16:04;;;;;;;7.47;2.40;;;0.90;99.90;;;;;;5078752;28;20044;-59
2024/01/07 11:18:33;;;;;;;6.93;2.67;;;0.90;99.90;;;;;;5078666;28;20040;-59
2024/01/07 11:21:03;;;;;;;7.85;2.15;;;1.00;99.90;;;;;;5078797;28;20041;-59
2024/01/07 11:23:40;;;;;;;4.15;1.60;;;0.90;99.90;;;;;;5078462;28;20100;-59
2024/01/07 11:26:06;;;;;;;5.63;2.20;;;0.70;99.90;;;;;;5077844;28;20096;-59
2024/01/07 11:28:57;;;;;;;6.78;2.22;;;0.80;99.90;;;;;;5078170;28;20044;-59
2024/01/07 11:31:41;;;;;;;6.55;2.15;;;1.20;99.90;;;;;;5078612;28;20097;-58
2024/01/07 11:34:07;;;;;;;8.57;3.20;;;1.30;99.90;;;;;;5078063;28;20579;-59
2024/01/07 11:36:36;;;;;;;10.32;3.08;;;1.00;99.90;;;;;;5078114;28;20082;-59
2024/01/07 11:39:03;;;;;;;7.75;2.92;;;1.10;99.90;;;;;;5079504;28;20084;-59
2024/01/07 11:41:33;;;;;;;6.85;2.63;;;1.40;99.90;;;;;;5082258;28;20053;-59
2024/01/07 11:44:00;;;;;;;6.05;2.50;;;1.20;99.90;;;;;;5082228;28;20052;-59
2024/01/07 11:46:30;;;;;;;7.00;2.63;;;1.40;99.90;;;;;;5082488;28;20046;-59
2024/01/07 11:48:59;;;;;;;7.68;3.08;;;1.50;99.90;;;;;;5082048;28;20048;-59
2024/01/07 11:51:30;;;;;;;7.88;2.70;;;1.20;99.90;;;;;;5063908;28;20056;-59
2024/01/07 11:53:56;;;;;;;9.50;3.28;;;1.50;99.90;;;;;;5082028;28;20155;-59
2024/01/07 11:56:22;;;;;;;5.82;2.47;;;1.50;99.90;;;;;;5080395;28;20529;-58
2024/01/07 11:58:48;;;;;;;8.73;2.67;;;1.10;99.90;;;;;;5081875;28;20098;-59
2024/01/07 12:01:16;;;;;;;5.75;2.45;;;1.20;99.90;;;;;;5081538;28;20122;-59
2024/01/07 12:03:45;;;;;;;7.75;2.53;;;1.40;99.90;;;;;;5081769;28;20160;-59
2024/01/07 12:06:13;;;;;;;7.35;2.83;;;1.40;99.90;;;;;;5081709;28;20068;-58
2024/01/07 12:08:43;;;;;;;8.63;2.95;;;1.50;99.90;;;;;;5081625;28;20557;-59
2024/01/07 12:11:12;;;;;;;6.45;2.42;;;1.40;99.90;;;;;;5081493;28;20514;-59
2024/01/07 12:13:39;;;;;;;7.20;3.00;;;1.30;99.90;;;;;;5081710;28;20037;-58
2024/01/07 12:16:08;;;;;;;6.35;2.50;;;1.70;99.90;;;;;;5081688;28;20079;-60
2024/01/07 12:18:38;;;;;;;9.95;2.63;;;1.70;99.90;;;;;;5081835;28;20048;-59
2024/01/07 12:21:04;;;;;;;7.70;2.15;;;1.40;99.90;;;;;;5081632;28;20049;-58
2024/01/07 12:23:36;;;;;;;7.57;2.90;;;1.60;99.90;;;;;;5081510;28;20055;-58
2024/01/07 12:26:09;;;;;;;7.20;2.47;;;1.60;99.90;;;;;;5081332;28;20033;-59
2024/01/07 12:28:35;;;;;;;10.38;2.95;;;1.40;99.90;;;;;;5080810;28;20483;-58
2024/01/07 12:31:01;;;;;;;9.05;3.03;;;1.60;99.90;;;;;;5081502;28;20056;-59
2024/01/07 12:33:29;;;;;;;7.63;2.65;;;1.50;99.90;;;;;;5081673;28;20372;-59
2024/01/07 12:35:55;;;;;;;6.80;2.75;;;1.60;99.90;;;;;;5081281;28;20040;-59
2024/01/07 12:38:27;;;;;;;14.32;5.30;;;1.30;99.90;;;;;;5079672;28;20066;-59
2024/01/07 12:40:53;;;;;;;11.00;4.28;;;1.10;99.90;;;;;;5080767;28;20055;-59
2024/01/07 12:43:20;;;;;;;11.45;5.05;;;1.40;99.90;;;;;;5081096;28;20630;-59
2024/01/07 12:45:47;;;;;;;8.15;3.00;;;1.10;99.90;;;;;;5080866;28;20044;-59
2024/01/07 12:48:12;;;;;;;7.05;3.05;;;0.90;99.90;;;;;;5081061;28;20064;-59